Hinterstoisser Air Base LOXZ

Flugplatz Daten

Name: Hinterstoisser Air Base

Ident: LOXZ

Lat: 47,20280075

Long: 14,74419975

Platzhöhe: 2220 ft

IataCode:

City: Zeltweg

Metar

2021/08/02 08:20
LOXZ 020820Z 10004KT 050V140 30KM FEW018SC SCT055SC BKN100AC 18/12 Q1016 NOSIG

Taf

2017/04/18 12:33
TAF LOXZ 181415Z 1812/1824 CNL
Gewünschte Webcam nicht vorhanden? Dann fügen Sie eine hinzu. Sie wird dann so schnell wie möglich freigeschaltet
Url: Title: